sensor_id;sensor_type;location;lat;lon;timestamp;P1;durP1;ratioP1;P2;durP2;ratioP2
14554;SDS011;7364;50.870;4.722;2022-12-16T00:01:06;50.00;;;30.53;;
14554;SDS011;7364;50.870;4.722;2022-12-16T00:03:35;46.73;;;30.63;;
14554;SDS011;7364;50.870;4.722;2022-12-16T00:06:03;48.50;;;32.00;;
14554;SDS011;7364;50.870;4.722;2022-12-16T00:08:35;45.67;;;29.77;;
14554;SDS011;7364;50.870;4.722;2022-12-16T00:11:07;44.77;;;29.83;;
14554;SDS011;7364;50.870;4.722;2022-12-16T00:13:35;44.40;;;30.83;;
14554;SDS011;7364;50.870;4.722;2022-12-16T00:16:04;46.23;;;30.83;;
14554;SDS011;7364;50.870;4.722;2022-12-16T00:18:33;48.53;;;32.00;;
14554;SDS011;7364;50.870;4.722;2022-12-16T00:21:01;45.50;;;32.67;;
14554;SDS011;7364;50.870;4.722;2022-12-16T00:23:29;61.80;;;36.60;;
14554;SDS011;7364;50.870;4.722;2022-12-16T00:25:58;58.83;;;36.57;;
14554;SDS011;7364;50.870;4.722;2022-12-16T00:28:26;42.90;;;31.20;;
14554;SDS011;7364;50.870;4.722;2022-12-16T00:30:54;56.57;;;30.83;;
14554;SDS011;7364;50.870;4.722;2022-12-16T00:33:22;43.80;;;30.80;;
14554;SDS011;7364;50.870;4.722;2022-12-16T00:35:50;46.13;;;31.43;;
14554;SDS011;7364;50.870;4.722;2022-12-16T00:38:18;47.80;;;28.23;;
14554;SDS011;7364;50.870;4.722;2022-12-16T00:40:46;41.50;;;28.97;;
14554;SDS011;7364;50.870;4.722;2022-12-16T00:43:14;46.63;;;31.03;;
14554;SDS011;7364;50.870;4.722;2022-12-16T00:45:42;43.80;;;30.83;;
14554;SDS011;7364;50.870;4.722;2022-12-16T00:48:10;47.20;;;30.77;;
14554;SDS011;7364;50.870;4.722;2022-12-16T00:50:38;50.07;;;33.43;;
14554;SDS011;7364;50.870;4.722;2022-12-16T00:53:05;44.37;;;30.63;;
14554;SDS011;7364;50.870;4.722;2022-12-16T00:55:33;51.23;;;31.50;;
14554;SDS011;7364;50.870;4.722;2022-12-16T00:58:00;44.63;;;31.50;;
14554;SDS011;7364;50.870;4.722;2022-12-16T01:00:28;58.47;;;32.53;;
14554;SDS011;7364;50.870;4.722;2022-12-16T01:02:56;46.93;;;32.23;;
14554;SDS011;7364;50.870;4.722;2022-12-16T01:05:23;45.60;;;31.50;;
14554;SDS011;7364;50.870;4.722;2022-12-16T01:07:51;46.40;;;30.73;;
14554;SDS011;7364;50.870;4.722;2022-12-16T01:10:19;44.80;;;30.27;;
14554;SDS011;7364;50.870;4.722;2022-12-16T01:12:47;42.73;;;28.50;;
14554;SDS011;7364;50.870;4.722;2022-12-16T01:15:14;43.63;;;30.87;;
14554;SDS011;7364;50.870;4.722;2022-12-16T01:17:44;45.90;;;30.90;;
14554;SDS011;7364;50.870;4.722;2022-12-16T01:20:11;46.83;;;29.47;;
14554;SDS011;7364;50.870;4.722;2022-12-16T01:22:39;44.03;;;30.17;;
14554;SDS011;7364;50.870;4.722;2022-12-16T01:25:06;45.00;;;30.03;;
14554;SDS011;7364;50.870;4.722;2022-12-16T01:27:35;40.93;;;30.20;;
14554;SDS011;7364;50.870;4.722;2022-12-16T01:30:02;44.93;;;30.53;;
14554;SDS011;7364;50.870;4.722;2022-12-16T01:32:30;39.40;;;30.87;;
14554;SDS011;7364;50.870;4.722;2022-12-16T01:35:00;42.17;;;29.90;;
14554;SDS011;7364;50.870;4.722;2022-12-16T01:37:27;39.33;;;28.80;;
14554;SDS011;7364;50.870;4.722;2022-12-16T01:39:54;47.97;;;31.20;;
14554;SDS011;7364;50.870;4.722;2022-12-16T01:42:22;43.87;;;29.60;;
14554;SDS011;7364;50.870;4.722;2022-12-16T01:44:53;43.60;;;29.10;;
14554;SDS011;7364;50.870;4.722;2022-12-16T01:47:22;44.27;;;31.53;;
14554;SDS011;7364;50.870;4.722;2022-12-16T01:49:57;45.20;;;30.17;;
14554;SDS011;7364;50.870;4.722;2022-12-16T01:52:28;43.40;;;28.60;;
14554;SDS011;7364;50.870;4.722;2022-12-16T01:55:02;38.23;;;29.13;;
14554;SDS011;7364;50.870;4.722;2022-12-16T01:57:35;45.90;;;29.33;;
14554;SDS011;7364;50.870;4.722;2022-12-16T02:00:07;47.00;;;30.73;;
14554;SDS011;7364;50.870;4.722;2022-12-16T02:02:36;42.17;;;29.30;;
14554;SDS011;7364;50.870;4.722;2022-12-16T02:05:05;44.60;;;28.80;;
14554;SDS011;7364;50.870;4.722;2022-12-16T02:07:51;43.40;;;29.50;;
14554;SDS011;7364;50.870;4.722;2022-12-16T02:10:26;45.93;;;32.00;;
14554;SDS011;7364;50.870;4.722;2022-12-16T02:13:04;51.27;;;34.53;;
14554;SDS011;7364;50.870;4.722;2022-12-16T02:15:43;45.90;;;33.03;;
14554;SDS011;7364;50.870;4.722;2022-12-16T02:18:19;51.37;;;33.90;;
14554;SDS011;7364;50.870;4.722;2022-12-16T02:21:04;56.00;;;34.80;;
14554;SDS011;7364;50.870;4.722;2022-12-16T02:24:04;49.30;;;33.93;;
14554;SDS011;7364;50.870;4.722;2022-12-16T02:27:14;51.67;;;33.70;;
14554;SDS011;7364;50.870;4.722;2022-12-16T02:30:06;49.83;;;34.33;;
14554;SDS011;7364;50.870;4.722;2022-12-16T02:32:49;49.03;;;32.27;;
14554;SDS011;7364;50.870;4.722;2022-12-16T02:35:27;49.77;;;31.90;;
14554;SDS011;7364;50.870;4.722;2022-12-16T02:38:05;43.37;;;31.70;;
14554;SDS011;7364;50.870;4.722;2022-12-16T02:40:40;48.00;;;31.33;;
14554;SDS011;7364;50.870;4.722;2022-12-16T02:43:15;51.00;;;33.03;;
14554;SDS011;7364;50.870;4.722;2022-12-16T02:45:49;46.00;;;31.50;;
14554;SDS011;7364;50.870;4.722;2022-12-16T02:48:17;44.33;;;31.47;;
14554;SDS011;7364;50.870;4.722;2022-12-16T02:50:47;44.73;;;32.67;;
14554;SDS011;7364;50.870;4.722;2022-12-16T02:53:16;50.60;;;32.20;;
14554;SDS011;7364;50.870;4.722;2022-12-16T02:55:48;49.00;;;32.00;;
14554;SDS011;7364;50.870;4.722;2022-12-16T02:58:21;40.33;;;30.50;;
14554;SDS011;7364;50.870;4.722;2022-12-16T03:00:56;43.83;;;30.60;;
14554;SDS011;7364;50.870;4.722;2022-12-16T03:03:31;40.63;;;29.90;;
14554;SDS011;7364;50.870;4.722;2022-12-16T03:06:09;42.10;;;30.57;;
14554;SDS011;7364;50.870;4.722;2022-12-16T03:08:39;48.53;;;30.63;;
14554;SDS011;7364;50.870;4.722;2022-12-16T03:11:11;45.00;;;30.83;;
14554;SDS011;7364;50.870;4.722;2022-12-16T03:13:41;38.53;;;28.93;;
14554;SDS011;7364;50.870;4.722;2022-12-16T03:16:13;43.33;;;29.57;;
14554;SDS011;7364;50.870;4.722;2022-12-16T03:18:44;44.77;;;29.57;;
14554;SDS011;7364;50.870;4.722;2022-12-16T03:21:14;45.80;;;31.50;;
14554;SDS011;7364;50.870;4.722;2022-12-16T03:23:44;42.97;;;30.10;;
14554;SDS011;7364;50.870;4.722;2022-12-16T03:26:17;39.87;;;29.07;;
14554;SDS011;7364;50.870;4.722;2022-12-16T03:28:51;44.23;;;29.37;;
14554;SDS011;7364;50.870;4.722;2022-12-16T03:31:30;43.17;;;30.07;;
14554;SDS011;7364;50.870;4.722;2022-12-16T03:34:03;42.37;;;28.53;;
14554;SDS011;7364;50.870;4.722;2022-12-16T03:36:36;40.77;;;29.20;;
14554;SDS011;7364;50.870;4.722;2022-12-16T03:39:05;38.20;;;28.73;;
14554;SDS011;7364;50.870;4.722;2022-12-16T03:41:34;49.07;;;30.17;;
14554;SDS011;7364;50.870;4.722;2022-12-16T03:44:02;45.73;;;30.60;;
14554;SDS011;7364;50.870;4.722;2022-12-16T03:46:31;47.93;;;30.50;;
14554;SDS011;7364;50.870;4.722;2022-12-16T03:48:58;52.33;;;31.33;;
14554;SDS011;7364;50.870;4.722;2022-12-16T03:51:25;44.33;;;29.23;;
14554;SDS011;7364;50.870;4.722;2022-12-16T03:53:52;40.10;;;30.43;;
14554;SDS011;7364;50.870;4.722;2022-12-16T03:56:20;43.30;;;31.40;;
14554;SDS011;7364;50.870;4.722;2022-12-16T03:58:47;44.17;;;30.40;;
14554;SDS011;7364;50.870;4.722;2022-12-16T04:01:14;41.10;;;29.70;;
14554;SDS011;7364;50.870;4.722;2022-12-16T04:03:43;46.50;;;29.80;;
14554;SDS011;7364;50.870;4.722;2022-12-16T04:06:10;45.37;;;31.07;;
14554;SDS011;7364;50.870;4.722;2022-12-16T04:08:37;47.87;;;32.37;;
14554;SDS011;7364;50.870;4.722;2022-12-16T04:11:04;48.13;;;31.60;;
14554;SDS011;7364;50.870;4.722;2022-12-16T04:13:49;43.83;;;30.37;;
14554;SDS011;7364;50.870;4.722;2022-12-16T04:16:34;41.17;;;30.37;;
14554;SDS011;7364;50.870;4.722;2022-12-16T04:19:21;44.93;;;32.23;;
14554;SDS011;7364;50.870;4.722;2022-12-16T04:22:10;46.73;;;31.27;;
14554;SDS011;7364;50.870;4.722;2022-12-16T04:24:57;45.00;;;30.73;;
14554;SDS011;7364;50.870;4.722;2022-12-16T04:27:31;49.43;;;29.70;;
14554;SDS011;7364;50.870;4.722;2022-12-16T04:29:58;42.97;;;30.70;;
14554;SDS011;7364;50.870;4.722;2022-12-16T04:32:43;45.77;;;31.30;;
14554;SDS011;7364;50.870;4.722;2022-12-16T04:35:29;43.47;;;29.67;;
14554;SDS011;7364;50.870;4.722;2022-12-16T04:38:14;39.50;;;26.27;;
14554;SDS011;7364;50.870;4.722;2022-12-16T04:40:59;46.77;;;26.60;;
14554;SDS011;7364;50.870;4.722;2022-12-16T04:43:44;47.63;;;29.03;;
14554;SDS011;7364;50.870;4.722;2022-12-16T04:46:28;50.80;;;29.67;;
14554;SDS011;7364;50.870;4.722;2022-12-16T04:49:13;49.90;;;29.53;;
14554;SDS011;7364;50.870;4.722;2022-12-16T04:51:59;50.70;;;30.47;;
14554;SDS011;7364;50.870;4.722;2022-12-16T04:54:44;54.27;;;29.93;;
14554;SDS011;7364;50.870;4.722;2022-12-16T04:57:29;53.53;;;31.23;;
14554;SDS011;7364;50.870;4.722;2022-12-16T05:00:13;64.87;;;31.70;;
14554;SDS011;7364;50.870;4.722;2022-12-16T05:02:58;48.60;;;29.47;;
14554;SDS011;7364;50.870;4.722;2022-12-16T05:05:42;45.97;;;28.43;;
14554;SDS011;7364;50.870;4.722;2022-12-16T05:08:28;58.30;;;31.03;;
14554;SDS011;7364;50.870;4.722;2022-12-16T05:11:13;58.97;;;30.43;;
14554;SDS011;7364;50.870;4.722;2022-12-16T05:13:58;52.40;;;31.97;;
14554;SDS011;7364;50.870;4.722;2022-12-16T05:16:42;55.17;;;31.43;;
14554;SDS011;7364;50.870;4.722;2022-12-16T05:19:27;60.47;;;32.77;;
14554;SDS011;7364;50.870;4.722;2022-12-16T05:22:11;51.80;;;31.30;;
14554;SDS011;7364;50.870;4.722;2022-12-16T05:24:57;58.57;;;31.33;;
14554;SDS011;7364;50.870;4.722;2022-12-16T05:27:42;55.07;;;32.67;;
14554;SDS011;7364;50.870;4.722;2022-12-16T05:30:27;52.73;;;31.10;;
14554;SDS011;7364;50.870;4.722;2022-12-16T05:33:12;63.20;;;32.87;;
14554;SDS011;7364;50.870;4.722;2022-12-16T05:35:56;52.97;;;33.57;;
14554;SDS011;7364;50.870;4.722;2022-12-16T05:38:41;57.13;;;32.60;;
14554;SDS011;7364;50.870;4.722;2022-12-16T05:41:27;53.57;;;33.70;;
14554;SDS011;7364;50.870;4.722;2022-12-16T05:44:12;55.97;;;33.53;;
14554;SDS011;7364;50.870;4.722;2022-12-16T05:46:56;59.93;;;31.77;;
14554;SDS011;7364;50.870;4.722;2022-12-16T05:49:41;58.93;;;31.83;;
14554;SDS011;7364;50.870;4.722;2022-12-16T05:52:25;62.70;;;34.27;;
14554;SDS011;7364;50.870;4.722;2022-12-16T05:55:10;107.37;;;42.23;;
14554;SDS011;7364;50.870;4.722;2022-12-16T05:57:56;211.10;;;88.80;;
14554;SDS011;7364;50.870;4.722;2022-12-16T06:00:41;143.87;;;62.60;;
14554;SDS011;7364;50.870;4.722;2022-12-16T06:03:25;91.93;;;45.57;;
14554;SDS011;7364;50.870;4.722;2022-12-16T06:06:10;107.40;;;59.37;;
14554;SDS011;7364;50.870;4.722;2022-12-16T06:08:54;62.50;;;37.60;;
14554;SDS011;7364;50.870;4.722;2022-12-16T06:11:39;59.07;;;34.40;;
14554;SDS011;7364;50.870;4.722;2022-12-16T06:14:25;75.63;;;40.57;;
14554;SDS011;7364;50.870;4.722;2022-12-16T06:17:09;58.57;;;36.70;;
14554;SDS011;7364;50.870;4.722;2022-12-16T06:19:54;66.37;;;32.83;;
14554;SDS011;7364;50.870;4.722;2022-12-16T06:22:39;64.20;;;36.03;;
14554;SDS011;7364;50.870;4.722;2022-12-16T06:25:23;59.43;;;33.60;;
14554;SDS011;7364;50.870;4.722;2022-12-16T06:28:08;62.77;;;34.87;;
14554;SDS011;7364;50.870;4.722;2022-12-16T06:30:54;58.33;;;33.53;;
14554;SDS011;7364;50.870;4.722;2022-12-16T06:33:39;64.13;;;33.13;;
14554;SDS011;7364;50.870;4.722;2022-12-16T06:36:23;57.27;;;33.47;;
14554;SDS011;7364;50.870;4.722;2022-12-16T06:39:08;63.20;;;34.53;;
14554;SDS011;7364;50.870;4.722;2022-12-16T06:41:53;54.70;;;31.70;;
14554;SDS011;7364;50.870;4.722;2022-12-16T06:44:37;49.47;;;30.07;;
14554;SDS011;7364;50.870;4.722;2022-12-16T06:47:23;52.90;;;30.93;;
14554;SDS011;7364;50.870;4.722;2022-12-16T06:50:08;55.23;;;30.97;;
14554;SDS011;7364;50.870;4.722;2022-12-16T06:52:52;60.13;;;33.50;;
14554;SDS011;7364;50.870;4.722;2022-12-16T06:55:37;57.37;;;33.40;;
14554;SDS011;7364;50.870;4.722;2022-12-16T06:58:21;70.67;;;38.73;;
14554;SDS011;7364;50.870;4.722;2022-12-16T07:01:06;74.73;;;41.40;;
14554;SDS011;7364;50.870;4.722;2022-12-16T07:03:52;69.67;;;37.33;;
14554;SDS011;7364;50.870;4.722;2022-12-16T07:06:36;63.17;;;37.10;;
14554;SDS011;7364;50.870;4.722;2022-12-16T07:09:21;65.83;;;36.10;;
14554;SDS011;7364;50.870;4.722;2022-12-16T07:12:05;61.07;;;34.93;;
14554;SDS011;7364;50.870;4.722;2022-12-16T07:14:50;58.33;;;32.80;;
14554;SDS011;7364;50.870;4.722;2022-12-16T07:17:35;66.43;;;34.97;;
14554;SDS011;7364;50.870;4.722;2022-12-16T07:20:23;60.13;;;34.77;;
14554;SDS011;7364;50.870;4.722;2022-12-16T07:23:08;59.00;;;32.63;;
14554;SDS011;7364;50.870;4.722;2022-12-16T07:25:52;65.30;;;34.37;;
14554;SDS011;7364;50.870;4.722;2022-12-16T07:28:44;59.40;;;33.90;;
14554;SDS011;7364;50.870;4.722;2022-12-16T07:31:31;62.90;;;31.93;;
14554;SDS011;7364;50.870;4.722;2022-12-16T07:34:16;51.67;;;32.07;;
14554;SDS011;7364;50.870;4.722;2022-12-16T07:37:05;95.03;;;50.33;;
14554;SDS011;7364;50.870;4.722;2022-12-16T07:39:51;64.07;;;35.10;;
14554;SDS011;7364;50.870;4.722;2022-12-16T07:42:36;67.43;;;37.13;;
14554;SDS011;7364;50.870;4.722;2022-12-16T07:45:23;56.77;;;36.23;;
14554;SDS011;7364;50.870;4.722;2022-12-16T07:48:08;73.30;;;44.57;;
14554;SDS011;7364;50.870;4.722;2022-12-16T07:50:52;52.67;;;29.43;;
14554;SDS011;7364;50.870;4.722;2022-12-16T07:53:38;44.80;;;26.57;;
14554;SDS011;7364;50.870;4.722;2022-12-16T07:56:23;46.80;;;29.40;;
14554;SDS011;7364;50.870;4.722;2022-12-16T07:59:08;43.33;;;26.83;;
14554;SDS011;7364;50.870;4.722;2022-12-16T08:01:52;51.97;;;33.30;;
14554;SDS011;7364;50.870;4.722;2022-12-16T08:04:37;49.00;;;28.37;;
14554;SDS011;7364;50.870;4.722;2022-12-16T08:07:22;44.50;;;26.73;;
14554;SDS011;7364;50.870;4.722;2022-12-16T08:10:08;51.30;;;29.00;;
14554;SDS011;7364;50.870;4.722;2022-12-16T08:12:58;44.53;;;27.50;;
14554;SDS011;7364;50.870;4.722;2022-12-16T08:15:44;51.20;;;28.90;;
14554;SDS011;7364;50.870;4.722;2022-12-16T08:18:29;40.47;;;27.80;;
14554;SDS011;7364;50.870;4.722;2022-12-16T08:21:14;44.40;;;27.80;;
14554;SDS011;7364;50.870;4.722;2022-12-16T08:23:59;53.67;;;28.10;;
14554;SDS011;7364;50.870;4.722;2022-12-16T08:26:45;47.47;;;26.33;;
14554;SDS011;7364;50.870;4.722;2022-12-16T08:29:30;61.23;;;31.97;;
14554;SDS011;7364;50.870;4.722;2022-12-16T08:32:15;52.90;;;29.47;;
14554;SDS011;7364;50.870;4.722;2022-12-16T08:35:00;42.87;;;27.07;;
14554;SDS011;7364;50.870;4.722;2022-12-16T08:37:48;49.20;;;27.67;;
14554;SDS011;7364;50.870;4.722;2022-12-16T08:40:37;43.97;;;25.47;;
14554;SDS011;7364;50.870;4.722;2022-12-16T08:43:23;49.23;;;29.47;;
14554;SDS011;7364;50.870;4.722;2022-12-16T08:46:07;47.37;;;26.13;;
14554;SDS011;7364;50.870;4.722;2022-12-16T08:48:52;43.97;;;27.83;;
14554;SDS011;7364;50.870;4.722;2022-12-16T08:51:36;43.27;;;27.67;;
14554;SDS011;7364;50.870;4.722;2022-12-16T08:54:21;41.40;;;27.67;;
14554;SDS011;7364;50.870;4.722;2022-12-16T08:57:06;46.73;;;29.07;;
14554;SDS011;7364;50.870;4.722;2022-12-16T08:59:52;44.97;;;26.03;;
14554;SDS011;7364;50.870;4.722;2022-12-16T09:02:37;39.93;;;23.80;;
14554;SDS011;7364;50.870;4.722;2022-12-16T09:05:21;40.50;;;23.90;;
14554;SDS011;7364;50.870;4.722;2022-12-16T09:08:07;36.30;;;23.23;;
14554;SDS011;7364;50.870;4.722;2022-12-16T09:10:51;32.30;;;20.03;;
14554;SDS011;7364;50.870;4.722;2022-12-16T09:13:37;29.50;;;18.97;;
14554;SDS011;7364;50.870;4.722;2022-12-16T09:16:23;37.93;;;21.93;;
14554;SDS011;7364;50.870;4.722;2022-12-16T09:19:08;34.70;;;22.33;;
14554;SDS011;7364;50.870;4.722;2022-12-16T09:22:05;33.23;;;21.80;;
14554;SDS011;7364;50.870;4.722;2022-12-16T09:24:49;37.40;;;23.07;;
14554;SDS011;7364;50.870;4.722;2022-12-16T09:27:34;33.53;;;23.50;;
14554;SDS011;7364;50.870;4.722;2022-12-16T09:30:18;36.50;;;22.93;;
14554;SDS011;7364;50.870;4.722;2022-12-16T09:33:04;42.13;;;23.20;;
14554;SDS011;7364;50.870;4.722;2022-12-16T09:35:49;34.90;;;22.00;;
14554;SDS011;7364;50.870;4.722;2022-12-16T09:38:34;38.47;;;22.63;;
14554;SDS011;7364;50.870;4.722;2022-12-16T09:41:25;36.67;;;23.03;;
14554;SDS011;7364;50.870;4.722;2022-12-16T09:44:22;34.13;;;22.73;;
14554;SDS011;7364;50.870;4.722;2022-12-16T09:47:14;37.00;;;22.03;;
14554;SDS011;7364;50.870;4.722;2022-12-16T09:50:06;45.80;;;27.20;;
14554;SDS011;7364;50.870;4.722;2022-12-16T09:53:02;45.00;;;26.03;;
14554;SDS011;7364;50.870;4.722;2022-12-16T09:55:52;42.50;;;23.70;;
14554;SDS011;7364;50.870;4.722;2022-12-16T09:58:38;33.53;;;21.63;;
14554;SDS011;7364;50.870;4.722;2022-12-16T10:01:27;30.50;;;22.27;;
14554;SDS011;7364;50.870;4.722;2022-12-16T10:04:15;35.47;;;21.67;;
14554;SDS011;7364;50.870;4.722;2022-12-16T10:07:02;24.63;;;18.87;;
14554;SDS011;7364;50.870;4.722;2022-12-16T10:09:52;38.50;;;21.57;;
14554;SDS011;7364;50.870;4.722;2022-12-16T10:12:48;43.87;;;25.00;;
14554;SDS011;7364;50.870;4.722;2022-12-16T10:15:42;36.53;;;21.63;;
14554;SDS011;7364;50.870;4.722;2022-12-16T10:18:36;30.37;;;20.13;;
14554;SDS011;7364;50.870;4.722;2022-12-16T10:21:31;30.73;;;21.07;;
14554;SDS011;7364;50.870;4.722;2022-12-16T10:24:24;32.17;;;21.00;;
14554;SDS011;7364;50.870;4.722;2022-12-16T10:27:19;32.03;;;19.83;;
14554;SDS011;7364;50.870;4.722;2022-12-16T10:30:13;24.33;;;18.10;;
14554;SDS011;7364;50.870;4.722;2022-12-16T10:32:58;31.63;;;20.13;;
14554;SDS011;7364;50.870;4.722;2022-12-16T10:35:45;27.97;;;18.23;;
14554;SDS011;7364;50.870;4.722;2022-12-16T10:38:47;27.30;;;17.50;;
14554;SDS011;7364;50.870;4.722;2022-12-16T10:41:37;26.13;;;18.33;;
14554;SDS011;7364;50.870;4.722;2022-12-16T10:44:27;31.87;;;20.33;;
14554;SDS011;7364;50.870;4.722;2022-12-16T10:47:16;30.00;;;19.80;;
14554;SDS011;7364;50.870;4.722;2022-12-16T10:50:01;28.40;;;19.00;;
14554;SDS011;7364;50.870;4.722;2022-12-16T10:52:49;30.10;;;19.03;;
14554;SDS011;7364;50.870;4.722;2022-12-16T10:55:44;36.27;;;21.20;;
14554;SDS011;7364;50.870;4.722;2022-12-16T10:58:41;31.10;;;18.57;;
14554;SDS011;7364;50.870;4.722;2022-12-16T11:01:29;29.53;;;19.53;;
14554;SDS011;7364;50.870;4.722;2022-12-16T11:04:27;28.93;;;17.63;;
14554;SDS011;7364;50.870;4.722;2022-12-16T11:07:27;31.00;;;20.53;;
14554;SDS011;7364;50.870;4.722;2022-12-16T11:10:28;33.70;;;20.43;;
14554;SDS011;7364;50.870;4.722;2022-12-16T11:13:16;24.70;;;16.30;;
14554;SDS011;7364;50.870;4.722;2022-12-16T11:16:22;30.10;;;19.53;;
14554;SDS011;7364;50.870;4.722;2022-12-16T11:19:17;34.80;;;20.40;;
14554;SDS011;7364;50.870;4.722;2022-12-16T11:22:04;26.40;;;18.57;;
14554;SDS011;7364;50.870;4.722;2022-12-16T11:24:59;38.20;;;25.30;;
14554;SDS011;7364;50.870;4.722;2022-12-16T11:27:48;29.90;;;19.57;;
14554;SDS011;7364;50.870;4.722;2022-12-16T11:30:33;21.57;;;15.87;;
14554;SDS011;7364;50.870;4.722;2022-12-16T11:33:22;28.20;;;18.07;;
14554;SDS011;7364;50.870;4.722;2022-12-16T11:36:15;28.37;;;19.23;;
14554;SDS011;7364;50.870;4.722;2022-12-16T11:39:06;25.23;;;17.13;;
14554;SDS011;7364;50.870;4.722;2022-12-16T11:41:55;27.27;;;17.77;;
14554;SDS011;7364;50.870;4.722;2022-12-16T11:44:41;22.97;;;17.77;;
14554;SDS011;7364;50.870;4.722;2022-12-16T11:47:32;25.23;;;17.23;;
14554;SDS011;7364;50.870;4.722;2022-12-16T11:50:24;34.57;;;20.37;;
14554;SDS011;7364;50.870;4.722;2022-12-16T11:53:15;26.37;;;17.50;;
14554;SDS011;7364;50.870;4.722;2022-12-16T11:56:08;27.03;;;15.80;;
14554;SDS011;7364;50.870;4.722;2022-12-16T11:58:58;25.77;;;18.17;;
14554;SDS011;7364;50.870;4.722;2022-12-16T12:01:47;26.10;;;17.73;;
14554;SDS011;7364;50.870;4.722;2022-12-16T12:04:36;27.33;;;17.37;;
14554;SDS011;7364;50.870;4.722;2022-12-16T12:07:24;26.90;;;18.07;;
14554;SDS011;7364;50.870;4.722;2022-12-16T12:10:18;26.53;;;16.43;;
14554;SDS011;7364;50.870;4.722;2022-12-16T12:13:15;31.83;;;17.23;;
14554;SDS011;7364;50.870;4.722;2022-12-16T12:16:11;27.43;;;19.17;;
14554;SDS011;7364;50.870;4.722;2022-12-16T12:19:00;30.17;;;19.87;;
14554;SDS011;7364;50.870;4.722;2022-12-16T12:21:51;28.13;;;19.83;;
14554;SDS011;7364;50.870;4.722;2022-12-16T12:24:43;43.13;;;28.53;;
14554;SDS011;7364;50.870;4.722;2022-12-16T12:27:36;43.13;;;32.27;;
14554;SDS011;7364;50.870;4.722;2022-12-16T12:30:26;31.47;;;22.03;;
14554;SDS011;7364;50.870;4.722;2022-12-16T12:33:23;34.97;;;21.53;;
14554;SDS011;7364;50.870;4.722;2022-12-16T12:36:17;35.97;;;24.17;;
14554;SDS011;7364;50.870;4.722;2022-12-16T12:39:21;58.53;;;48.33;;
14554;SDS011;7364;50.870;4.722;2022-12-16T12:42:17;34.67;;;26.20;;
14554;SDS011;7364;50.870;4.722;2022-12-16T12:45:17;33.07;;;19.17;;
14554;SDS011;7364;50.870;4.722;2022-12-16T12:48:12;37.33;;;25.63;;
14554;SDS011;7364;50.870;4.722;2022-12-16T12:51:06;81.60;;;51.10;;
14554;SDS011;7364;50.870;4.722;2022-12-16T12:53:59;32.43;;;22.17;;
14554;SDS011;7364;50.870;4.722;2022-12-16T12:56:51;37.40;;;21.80;;
14554;SDS011;7364;50.870;4.722;2022-12-16T12:59:42;37.73;;;23.57;;
14554;SDS011;7364;50.870;4.722;2022-12-16T13:02:33;37.90;;;23.60;;
14554;SDS011;7364;50.870;4.722;2022-12-16T13:05:26;33.70;;;23.27;;
14554;SDS011;7364;50.870;4.722;2022-12-16T13:08:37;48.83;;;30.07;;
14554;SDS011;7364;50.870;4.722;2022-12-16T13:11:37;33.87;;;22.23;;
14554;SDS011;7364;50.870;4.722;2022-12-16T13:20:59;32.40;;;21.13;;
14554;SDS011;7364;50.870;4.722;2022-12-16T13:23:44;32.97;;;22.17;;
14554;SDS011;7364;50.870;4.722;2022-12-16T13:26:30;31.50;;;21.30;;
14554;SDS011;7364;50.870;4.722;2022-12-16T13:29:18;41.47;;;24.47;;
14554;SDS011;7364;50.870;4.722;2022-12-16T13:32:15;25.03;;;19.07;;
14554;SDS011;7364;50.870;4.722;2022-12-16T13:35:03;32.60;;;21.30;;
14554;SDS011;7364;50.870;4.722;2022-12-16T13:37:58;30.97;;;20.67;;
14554;SDS011;7364;50.870;4.722;2022-12-16T13:40:48;32.10;;;20.43;;
14554;SDS011;7364;50.870;4.722;2022-12-16T13:46:41;32.80;;;20.43;;
14554;SDS011;7364;50.870;4.722;2022-12-16T13:49:42;32.87;;;21.27;;
14554;SDS011;7364;50.870;4.722;2022-12-16T13:52:41;35.37;;;21.67;;
14554;SDS011;7364;50.870;4.722;2022-12-16T13:55:32;29.27;;;17.90;;
14554;SDS011;7364;50.870;4.722;2022-12-16T13:58:25;32.83;;;20.07;;
14554;SDS011;7364;50.870;4.722;2022-12-16T14:01:16;29.67;;;18.67;;
14554;SDS011;7364;50.870;4.722;2022-12-16T14:04:07;26.20;;;17.63;;
14554;SDS011;7364;50.870;4.722;2022-12-16T14:06:53;34.20;;;19.37;;
14554;SDS011;7364;50.870;4.722;2022-12-16T14:09:41;42.77;;;25.97;;
14554;SDS011;7364;50.870;4.722;2022-12-16T14:12:39;25.63;;;17.07;;
14554;SDS011;7364;50.870;4.722;2022-12-16T14:15:38;22.60;;;15.73;;
14554;SDS011;7364;50.870;4.722;2022-12-16T14:18:35;27.83;;;16.67;;
14554;SDS011;7364;50.870;4.722;2022-12-16T14:21:27;29.97;;;15.77;;
14554;SDS011;7364;50.870;4.722;2022-12-16T14:24:20;44.60;;;24.70;;
14554;SDS011;7364;50.870;4.722;2022-12-16T14:27:13;23.67;;;16.73;;
14554;SDS011;7364;50.870;4.722;2022-12-16T14:30:00;23.17;;;14.57;;
14554;SDS011;7364;50.870;4.722;2022-12-16T14:32:57;36.50;;;18.33;;
14554;SDS011;7364;50.870;4.722;2022-12-16T14:35:47;35.23;;;21.17;;
14554;SDS011;7364;50.870;4.722;2022-12-16T14:38:33;27.67;;;15.63;;
14554;SDS011;7364;50.870;4.722;2022-12-16T14:41:21;26.77;;;15.03;;
14554;SDS011;7364;50.870;4.722;2022-12-16T14:44:14;27.00;;;14.80;;
14554;SDS011;7364;50.870;4.722;2022-12-16T14:47:01;25.13;;;15.23;;
14554;SDS011;7364;50.870;4.722;2022-12-16T14:49:47;26.13;;;14.70;;
14554;SDS011;7364;50.870;4.722;2022-12-16T14:52:34;23.60;;;15.20;;
14554;SDS011;7364;50.870;4.722;2022-12-16T14:55:25;25.17;;;15.17;;
14554;SDS011;7364;50.870;4.722;2022-12-16T14:58:12;22.23;;;14.43;;
14554;SDS011;7364;50.870;4.722;2022-12-16T15:00:59;24.47;;;13.33;;
14554;SDS011;7364;50.870;4.722;2022-12-16T15:03:47;20.47;;;13.90;;
14554;SDS011;7364;50.870;4.722;2022-12-16T15:06:33;25.07;;;13.90;;
14554;SDS011;7364;50.870;4.722;2022-12-16T15:09:24;31.67;;;16.70;;
14554;SDS011;7364;50.870;4.722;2022-12-16T15:12:11;62.87;;;27.40;;
14554;SDS011;7364;50.870;4.722;2022-12-16T15:15:00;22.57;;;14.93;;
14554;SDS011;7364;50.870;4.722;2022-12-16T15:17:49;22.80;;;14.00;;
14554;SDS011;7364;50.870;4.722;2022-12-16T15:20:37;24.43;;;15.10;;
14554;SDS011;7364;50.870;4.722;2022-12-16T15:23:28;28.53;;;15.40;;
14554;SDS011;7364;50.870;4.722;2022-12-16T15:26:16;33.50;;;16.97;;
14554;SDS011;7364;50.870;4.722;2022-12-16T15:29:01;30.83;;;15.90;;
14554;SDS011;7364;50.870;4.722;2022-12-16T15:31:48;37.80;;;20.30;;
14554;SDS011;7364;50.870;4.722;2022-12-16T15:34:36;33.67;;;17.37;;
14554;SDS011;7364;50.870;4.722;2022-12-16T15:37:29;20.27;;;14.10;;
14554;SDS011;7364;50.870;4.722;2022-12-16T15:40:20;25.93;;;15.37;;
14554;SDS011;7364;50.870;4.722;2022-12-16T15:43:19;23.93;;;15.40;;
14554;SDS011;7364;50.870;4.722;2022-12-16T15:46:08;23.40;;;15.17;;
14554;SDS011;7364;50.870;4.722;2022-12-16T15:49:13;23.33;;;15.50;;
14554;SDS011;7364;50.870;4.722;2022-12-16T15:52:02;26.60;;;16.50;;
14554;SDS011;7364;50.870;4.722;2022-12-16T15:58:12;27.77;;;17.83;;
14554;SDS011;7364;50.870;4.722;2022-12-16T16:00:55;26.23;;;17.50;;
14554;SDS011;7364;50.870;4.722;2022-12-16T16:03:42;28.83;;;16.97;;
14554;SDS011;7364;50.870;4.722;2022-12-16T16:06:33;30.77;;;19.47;;
14554;SDS011;7364;50.870;4.722;2022-12-16T16:09:19;29.27;;;18.87;;
14554;SDS011;7364;50.870;4.722;2022-12-16T16:12:06;34.60;;;19.40;;
14554;SDS011;7364;50.870;4.722;2022-12-16T16:14:51;31.60;;;19.77;;
14554;SDS011;7364;50.870;4.722;2022-12-16T16:17:36;30.63;;;20.63;;
14554;SDS011;7364;50.870;4.722;2022-12-16T16:20:20;29.37;;;19.23;;
14554;SDS011;7364;50.870;4.722;2022-12-16T16:23:07;29.83;;;19.43;;